sensor_id;sensor_type;location;lat;lon;timestamp;P1;durP1;ratioP1;P2;durP2;ratioP2
77466;SDS011;66564;42.482;25.548;2024-01-11T00:01:03;5.35;;;2.92;;
77466;SDS011;66564;42.482;25.548;2024-01-11T00:03:29;6.93;;;2.78;;
77466;SDS011;66564;42.482;25.548;2024-01-11T00:05:54;5.00;;;2.90;;
77466;SDS011;66564;42.482;25.548;2024-01-11T00:08:20;6.80;;;3.40;;
77466;SDS011;66564;42.482;25.548;2024-01-11T00:10:46;6.18;;;3.03;;
77466;SDS011;66564;42.482;25.548;2024-01-11T00:13:11;5.63;;;2.80;;
77466;SDS011;66564;42.482;25.548;2024-01-11T00:15:37;5.28;;;3.33;;
77466;SDS011;66564;42.482;25.548;2024-01-11T00:18:02;10.73;;;3.92;;
77466;SDS011;66564;42.482;25.548;2024-01-11T00:20:28;9.05;;;2.95;;
77466;SDS011;66564;42.482;25.548;2024-01-11T00:22:53;7.32;;;3.30;;
77466;SDS011;66564;42.482;25.548;2024-01-11T00:25:19;5.72;;;3.15;;
77466;SDS011;66564;42.482;25.548;2024-01-11T00:27:44;10.48;;;4.10;;
77466;SDS011;66564;42.482;25.548;2024-01-11T00:30:10;6.55;;;3.63;;
77466;SDS011;66564;42.482;25.548;2024-01-11T00:32:36;5.85;;;3.00;;
77466;SDS011;66564;42.482;25.548;2024-01-11T00:35:01;5.80;;;3.35;;
77466;SDS011;66564;42.482;25.548;2024-01-11T00:37:27;8.13;;;3.78;;
77466;SDS011;66564;42.482;25.548;2024-01-11T00:39:52;7.75;;;3.65;;
77466;SDS011;66564;42.482;25.548;2024-01-11T00:42:18;8.32;;;4.20;;
77466;SDS011;66564;42.482;25.548;2024-01-11T00:44:43;7.90;;;4.88;;
77466;SDS011;66564;42.482;25.548;2024-01-11T00:47:10;8.80;;;4.72;;
77466;SDS011;66564;42.482;25.548;2024-01-11T00:49:36;6.68;;;4.00;;
77466;SDS011;66564;42.482;25.548;2024-01-11T00:52:04;5.78;;;3.47;;
77466;SDS011;66564;42.482;25.548;2024-01-11T00:54:29;4.95;;;2.95;;
77466;SDS011;66564;42.482;25.548;2024-01-11T00:56:55;7.97;;;3.33;;
77466;SDS011;66564;42.482;25.548;2024-01-11T00:59:20;8.63;;;3.55;;
77466;SDS011;66564;42.482;25.548;2024-01-11T01:01:46;5.78;;;3.38;;
77466;SDS011;66564;42.482;25.548;2024-01-11T01:04:13;7.15;;;3.17;;
77466;SDS011;66564;42.482;25.548;2024-01-11T01:06:39;5.30;;;3.15;;
77466;SDS011;66564;42.482;25.548;2024-01-11T01:09:04;4.95;;;3.20;;
77466;SDS011;66564;42.482;25.548;2024-01-11T01:11:35;7.20;;;3.72;;
77466;SDS011;66564;42.482;25.548;2024-01-11T01:14:01;6.82;;;3.47;;
77466;SDS011;66564;42.482;25.548;2024-01-11T01:16:26;8.55;;;3.42;;
77466;SDS011;66564;42.482;25.548;2024-01-11T01:18:52;5.25;;;3.28;;
77466;SDS011;66564;42.482;25.548;2024-01-11T01:21:17;6.22;;;3.97;;
77466;SDS011;66564;42.482;25.548;2024-01-11T01:23:43;8.30;;;4.53;;
77466;SDS011;66564;42.482;25.548;2024-01-11T01:26:08;7.85;;;4.18;;
77466;SDS011;66564;42.482;25.548;2024-01-11T01:28:34;10.00;;;4.43;;
77466;SDS011;66564;42.482;25.548;2024-01-11T01:30:59;11.30;;;4.32;;
77466;SDS011;66564;42.482;25.548;2024-01-11T01:33:25;6.03;;;4.07;;
77466;SDS011;66564;42.482;25.548;2024-01-11T01:35:50;6.22;;;3.25;;
77466;SDS011;66564;42.482;25.548;2024-01-11T01:38:15;6.43;;;3.50;;
77466;SDS011;66564;42.482;25.548;2024-01-11T01:40:42;6.40;;;3.45;;
77466;SDS011;66564;42.482;25.548;2024-01-11T01:43:08;6.10;;;3.63;;
77466;SDS011;66564;42.482;25.548;2024-01-11T01:45:37;6.65;;;3.80;;
77466;SDS011;66564;42.482;25.548;2024-01-11T01:48:03;6.20;;;3.50;;
77466;SDS011;66564;42.482;25.548;2024-01-11T01:50:29;8.82;;;3.65;;
77466;SDS011;66564;42.482;25.548;2024-01-11T01:52:55;8.60;;;5.05;;
77466;SDS011;66564;42.482;25.548;2024-01-11T01:55:21;6.25;;;4.00;;
77466;SDS011;66564;42.482;25.548;2024-01-11T01:57:48;10.82;;;3.72;;
77466;SDS011;66564;42.482;25.548;2024-01-11T02:00:15;7.95;;;3.95;;
77466;SDS011;66564;42.482;25.548;2024-01-11T02:02:42;10.07;;;4.60;;
77466;SDS011;66564;42.482;25.548;2024-01-11T02:05:10;7.55;;;4.38;;
77466;SDS011;66564;42.482;25.548;2024-01-11T02:07:36;8.57;;;4.45;;
77466;SDS011;66564;42.482;25.548;2024-01-11T02:10:02;10.65;;;4.57;;
77466;SDS011;66564;42.482;25.548;2024-01-11T02:12:28;11.57;;;4.28;;
77466;SDS011;66564;42.482;25.548;2024-01-11T02:14:54;6.55;;;4.22;;
77466;SDS011;66564;42.482;25.548;2024-01-11T02:17:26;10.50;;;4.80;;
77466;SDS011;66564;42.482;25.548;2024-01-11T02:19:51;9.52;;;3.72;;
77466;SDS011;66564;42.482;25.548;2024-01-11T02:22:24;7.43;;;4.53;;
77466;SDS011;66564;42.482;25.548;2024-01-11T02:24:56;6.50;;;4.50;;
77466;SDS011;66564;42.482;25.548;2024-01-11T02:27:23;5.63;;;3.45;;
77466;SDS011;66564;42.482;25.548;2024-01-11T02:29:48;7.82;;;4.00;;
77466;SDS011;66564;42.482;25.548;2024-01-11T02:32:14;7.35;;;5.28;;
77466;SDS011;66564;42.482;25.548;2024-01-11T02:34:39;8.55;;;4.80;;
77466;SDS011;66564;42.482;25.548;2024-01-11T02:37:05;10.85;;;4.80;;
77466;SDS011;66564;42.482;25.548;2024-01-11T02:39:31;8.10;;;4.65;;
77466;SDS011;66564;42.482;25.548;2024-01-11T02:42:03;8.32;;;4.25;;
77466;SDS011;66564;42.482;25.548;2024-01-11T02:44:31;8.68;;;3.63;;
77466;SDS011;66564;42.482;25.548;2024-01-11T02:46:56;15.48;;;3.88;;
77466;SDS011;66564;42.482;25.548;2024-01-11T02:49:22;9.38;;;4.05;;
77466;SDS011;66564;42.482;25.548;2024-01-11T02:51:47;11.50;;;4.93;;
77466;SDS011;66564;42.482;25.548;2024-01-11T02:54:13;8.93;;;4.53;;
77466;SDS011;66564;42.482;25.548;2024-01-11T02:56:38;10.75;;;4.60;;
77466;SDS011;66564;42.482;25.548;2024-01-11T02:59:07;10.35;;;5.63;;
77466;SDS011;66564;42.482;25.548;2024-01-11T03:01:32;10.30;;;5.57;;
77466;SDS011;66564;42.482;25.548;2024-01-11T03:03:59;12.82;;;5.60;;
77466;SDS011;66564;42.482;25.548;2024-01-11T03:06:24;8.85;;;5.15;;
77466;SDS011;66564;42.482;25.548;2024-01-11T03:08:50;8.93;;;3.97;;
77466;SDS011;66564;42.482;25.548;2024-01-11T03:11:15;16.13;;;6.63;;
77466;SDS011;66564;42.482;25.548;2024-01-11T03:13:44;12.07;;;6.65;;
77466;SDS011;66564;42.482;25.548;2024-01-11T03:16:12;13.35;;;6.82;;
77466;SDS011;66564;42.482;25.548;2024-01-11T03:18:40;13.35;;;6.65;;
77466;SDS011;66564;42.482;25.548;2024-01-11T03:21:05;12.07;;;6.63;;
77466;SDS011;66564;42.482;25.548;2024-01-11T03:23:31;13.77;;;7.72;;
77466;SDS011;66564;42.482;25.548;2024-01-11T03:25:57;12.70;;;7.00;;
77466;SDS011;66564;42.482;25.548;2024-01-11T03:28:22;12.80;;;6.10;;
77466;SDS011;66564;42.482;25.548;2024-01-11T03:30:47;11.15;;;6.57;;
77466;SDS011;66564;42.482;25.548;2024-01-11T03:33:13;11.60;;;6.13;;
77466;SDS011;66564;42.482;25.548;2024-01-11T03:35:41;15.18;;;7.97;;
77466;SDS011;66564;42.482;25.548;2024-01-11T03:38:08;14.35;;;7.35;;
77466;SDS011;66564;42.482;25.548;2024-01-11T03:40:34;14.55;;;6.70;;
77466;SDS011;66564;42.482;25.548;2024-01-11T03:42:59;15.98;;;6.72;;
77466;SDS011;66564;42.482;25.548;2024-01-11T03:45:27;11.57;;;7.05;;
77466;SDS011;66564;42.482;25.548;2024-01-11T03:47:53;13.60;;;7.20;;
77466;SDS011;66564;42.482;25.548;2024-01-11T03:50:21;14.77;;;8.10;;
77466;SDS011;66564;42.482;25.548;2024-01-11T03:52:49;15.45;;;5.82;;
77466;SDS011;66564;42.482;25.548;2024-01-11T03:55:14;11.50;;;5.65;;
77466;SDS011;66564;42.482;25.548;2024-01-11T03:57:42;13.85;;;5.85;;
77466;SDS011;66564;42.482;25.548;2024-01-11T04:00:12;13.65;;;7.53;;
77466;SDS011;66564;42.482;25.548;2024-01-11T04:02:38;15.00;;;6.55;;
77466;SDS011;66564;42.482;25.548;2024-01-11T04:05:03;14.07;;;6.50;;
77466;SDS011;66564;42.482;25.548;2024-01-11T04:07:29;9.43;;;5.68;;
77466;SDS011;66564;42.482;25.548;2024-01-11T04:09:54;12.90;;;6.20;;
77466;SDS011;66564;42.482;25.548;2024-01-11T04:12:20;11.70;;;5.45;;
77466;SDS011;66564;42.482;25.548;2024-01-11T04:14:46;12.25;;;5.28;;
77466;SDS011;66564;42.482;25.548;2024-01-11T04:17:11;8.50;;;5.47;;
77466;SDS011;66564;42.482;25.548;2024-01-11T04:19:37;13.15;;;5.97;;
77466;SDS011;66564;42.482;25.548;2024-01-11T04:22:02;10.25;;;4.88;;
77466;SDS011;66564;42.482;25.548;2024-01-11T04:24:28;6.95;;;4.18;;
77466;SDS011;66564;42.482;25.548;2024-01-11T04:26:53;10.55;;;4.88;;
77466;SDS011;66564;42.482;25.548;2024-01-11T04:29:18;9.68;;;5.20;;
77466;SDS011;66564;42.482;25.548;2024-01-11T04:31:44;8.18;;;4.95;;
77466;SDS011;66564;42.482;25.548;2024-01-11T04:34:11;6.47;;;4.45;;
77466;SDS011;66564;42.482;25.548;2024-01-11T04:36:37;8.65;;;4.18;;
77466;SDS011;66564;42.482;25.548;2024-01-11T04:39:03;8.30;;;4.30;;
77466;SDS011;66564;42.482;25.548;2024-01-11T04:41:33;8.07;;;4.70;;
77466;SDS011;66564;42.482;25.548;2024-01-11T04:44:01;9.13;;;4.70;;
77466;SDS011;66564;42.482;25.548;2024-01-11T04:46:27;12.27;;;5.45;;
77466;SDS011;66564;42.482;25.548;2024-01-11T04:48:52;11.90;;;5.82;;
77466;SDS011;66564;42.482;25.548;2024-01-11T04:51:19;11.70;;;6.28;;
77466;SDS011;66564;42.482;25.548;2024-01-11T04:53:45;12.63;;;5.53;;
77466;SDS011;66564;42.482;25.548;2024-01-11T04:56:11;10.93;;;5.35;;
77466;SDS011;66564;42.482;25.548;2024-01-11T04:58:39;10.00;;;4.75;;
77466;SDS011;66564;42.482;25.548;2024-01-11T05:01:06;10.45;;;5.10;;
77466;SDS011;66564;42.482;25.548;2024-01-11T05:03:32;10.13;;;5.25;;
77466;SDS011;66564;42.482;25.548;2024-01-11T05:05:58;8.43;;;4.43;;
77466;SDS011;66564;42.482;25.548;2024-01-11T05:08:24;7.40;;;4.15;;
77466;SDS011;66564;42.482;25.548;2024-01-11T05:10:50;9.95;;;4.88;;
77466;SDS011;66564;42.482;25.548;2024-01-11T05:13:17;7.13;;;4.00;;
77466;SDS011;66564;42.482;25.548;2024-01-11T05:15:42;7.90;;;3.45;;
77466;SDS011;66564;42.482;25.548;2024-01-11T05:18:08;7.45;;;4.65;;
77466;SDS011;66564;42.482;25.548;2024-01-11T05:20:33;9.18;;;4.47;;
77466;SDS011;66564;42.482;25.548;2024-01-11T05:22:59;9.10;;;4.85;;
77466;SDS011;66564;42.482;25.548;2024-01-11T05:25:26;7.88;;;4.68;;
77466;SDS011;66564;42.482;25.548;2024-01-11T05:27:51;4.88;;;3.15;;
77466;SDS011;66564;42.482;25.548;2024-01-11T05:30:17;8.68;;;3.90;;
77466;SDS011;66564;42.482;25.548;2024-01-11T05:32:43;9.55;;;4.40;;
77466;SDS011;66564;42.482;25.548;2024-01-11T05:35:08;9.25;;;4.18;;
77466;SDS011;66564;42.482;25.548;2024-01-11T05:37:35;10.32;;;4.63;;
77466;SDS011;66564;42.482;25.548;2024-01-11T05:40:01;10.70;;;4.57;;
77466;SDS011;66564;42.482;25.548;2024-01-11T05:42:26;9.98;;;3.63;;
77466;SDS011;66564;42.482;25.548;2024-01-11T05:44:52;10.57;;;3.60;;
77466;SDS011;66564;42.482;25.548;2024-01-11T05:47:18;6.82;;;3.95;;
77466;SDS011;66564;42.482;25.548;2024-01-11T05:49:44;7.95;;;3.90;;
77466;SDS011;66564;42.482;25.548;2024-01-11T05:52:13;11.73;;;3.78;;
77466;SDS011;66564;42.482;25.548;2024-01-11T05:54:38;7.80;;;3.70;;
77466;SDS011;66564;42.482;25.548;2024-01-11T05:57:04;7.13;;;3.63;;
77466;SDS011;66564;42.482;25.548;2024-01-11T05:59:29;11.48;;;4.80;;
77466;SDS011;66564;42.482;25.548;2024-01-11T06:01:55;7.78;;;3.90;;
77466;SDS011;66564;42.482;25.548;2024-01-11T06:04:24;16.40;;;4.13;;
77466;SDS011;66564;42.482;25.548;2024-01-11T06:06:51;4.93;;;2.78;;
77466;SDS011;66564;42.482;25.548;2024-01-11T06:09:16;6.22;;;3.85;;
77466;SDS011;66564;42.482;25.548;2024-01-11T06:11:41;6.93;;;4.15;;
77466;SDS011;66564;42.482;25.548;2024-01-11T06:14:12;8.75;;;3.78;;
77466;SDS011;66564;42.482;25.548;2024-01-11T06:16:42;4.60;;;3.75;;
77466;SDS011;66564;42.482;25.548;2024-01-11T06:19:08;7.10;;;3.20;;
77466;SDS011;66564;42.482;25.548;2024-01-11T06:21:34;6.22;;;3.40;;
77466;SDS011;66564;42.482;25.548;2024-01-11T06:23:59;7.07;;;3.90;;
77466;SDS011;66564;42.482;25.548;2024-01-11T06:26:25;6.20;;;3.50;;
77466;SDS011;66564;42.482;25.548;2024-01-11T06:28:50;15.68;;;3.97;;
77466;SDS011;66564;42.482;25.548;2024-01-11T06:31:16;9.75;;;4.03;;
77466;SDS011;66564;42.482;25.548;2024-01-11T06:33:43;11.07;;;5.53;;
77466;SDS011;66564;42.482;25.548;2024-01-11T06:36:08;10.00;;;4.25;;
77466;SDS011;66564;42.482;25.548;2024-01-11T06:38:35;9.73;;;5.07;;
77466;SDS011;66564;42.482;25.548;2024-01-11T06:41:00;10.02;;;6.22;;
77466;SDS011;66564;42.482;25.548;2024-01-11T06:43:26;12.55;;;7.35;;
77466;SDS011;66564;42.482;25.548;2024-01-11T06:45:51;16.20;;;6.63;;
77466;SDS011;66564;42.482;25.548;2024-01-11T06:48:18;13.75;;;7.75;;
77466;SDS011;66564;42.482;25.548;2024-01-11T06:50:46;12.18;;;6.63;;
77466;SDS011;66564;42.482;25.548;2024-01-11T06:53:12;14.77;;;6.70;;
77466;SDS011;66564;42.482;25.548;2024-01-11T06:55:37;17.02;;;7.32;;
77466;SDS011;66564;42.482;25.548;2024-01-11T06:58:07;10.48;;;6.30;;
77466;SDS011;66564;42.482;25.548;2024-01-11T07:00:32;12.85;;;6.35;;
77466;SDS011;66564;42.482;25.548;2024-01-11T07:02:58;11.30;;;6.20;;
77466;SDS011;66564;42.482;25.548;2024-01-11T07:05:24;12.98;;;6.00;;
77466;SDS011;66564;42.482;25.548;2024-01-11T07:07:49;19.02;;;6.35;;
77466;SDS011;66564;42.482;25.548;2024-01-11T07:10:15;19.65;;;7.53;;
77466;SDS011;66564;42.482;25.548;2024-01-11T07:12:43;22.05;;;7.53;;
77466;SDS011;66564;42.482;25.548;2024-01-11T07:15:10;15.80;;;6.53;;
77466;SDS011;66564;42.482;25.548;2024-01-11T07:17:36;12.25;;;7.10;;
77466;SDS011;66564;42.482;25.548;2024-01-11T07:20:02;17.73;;;8.35;;
77466;SDS011;66564;42.482;25.548;2024-01-11T07:22:29;15.07;;;8.98;;
77466;SDS011;66564;42.482;25.548;2024-01-11T07:24:54;17.67;;;7.93;;
77466;SDS011;66564;42.482;25.548;2024-01-11T07:27:22;21.70;;;8.48;;
77466;SDS011;66564;42.482;25.548;2024-01-11T07:29:47;14.07;;;6.70;;
77466;SDS011;66564;42.482;25.548;2024-01-11T07:32:13;13.30;;;7.53;;
77466;SDS011;66564;42.482;25.548;2024-01-11T07:34:38;13.27;;;7.07;;
77466;SDS011;66564;42.482;25.548;2024-01-11T07:37:04;12.50;;;6.43;;
77466;SDS011;66564;42.482;25.548;2024-01-11T07:39:29;18.70;;;6.20;;
77466;SDS011;66564;42.482;25.548;2024-01-11T07:41:56;25.60;;;12.23;;
77466;SDS011;66564;42.482;25.548;2024-01-11T07:44:21;16.10;;;7.57;;
77466;SDS011;66564;42.482;25.548;2024-01-11T07:46:47;14.85;;;6.93;;
77466;SDS011;66564;42.482;25.548;2024-01-11T07:49:12;8.70;;;5.40;;
77466;SDS011;66564;42.482;25.548;2024-01-11T07:51:38;9.77;;;5.50;;
77466;SDS011;66564;42.482;25.548;2024-01-11T07:54:04;10.15;;;6.45;;
77466;SDS011;66564;42.482;25.548;2024-01-11T07:56:32;11.63;;;5.57;;
77466;SDS011;66564;42.482;25.548;2024-01-11T07:59:01;9.02;;;5.32;;
77466;SDS011;66564;42.482;25.548;2024-01-11T08:01:30;8.77;;;5.53;;
77466;SDS011;66564;42.482;25.548;2024-01-11T08:03:55;11.57;;;6.63;;
77466;SDS011;66564;42.482;25.548;2024-01-11T08:06:21;12.80;;;5.72;;
77466;SDS011;66564;42.482;25.548;2024-01-11T08:08:47;8.93;;;4.45;;
77466;SDS011;66564;42.482;25.548;2024-01-11T08:11:16;7.05;;;5.60;;
77466;SDS011;66564;42.482;25.548;2024-01-11T08:13:43;9.80;;;6.72;;
77466;SDS011;66564;42.482;25.548;2024-01-11T08:16:09;10.50;;;5.43;;
77466;SDS011;66564;42.482;25.548;2024-01-11T08:18:43;10.95;;;7.15;;
77466;SDS011;66564;42.482;25.548;2024-01-11T08:21:14;8.07;;;5.07;;
77466;SDS011;66564;42.482;25.548;2024-01-11T08:23:42;12.70;;;7.07;;
77466;SDS011;66564;42.482;25.548;2024-01-11T08:26:14;10.25;;;5.90;;
77466;SDS011;66564;42.482;25.548;2024-01-11T08:28:40;7.50;;;4.45;;
77466;SDS011;66564;42.482;25.548;2024-01-11T08:31:06;9.52;;;4.70;;
77466;SDS011;66564;42.482;25.548;2024-01-11T08:33:32;7.95;;;4.45;;
77466;SDS011;66564;42.482;25.548;2024-01-11T08:35:57;7.07;;;4.45;;
77466;SDS011;66564;42.482;25.548;2024-01-11T08:38:23;8.25;;;5.15;;
77466;SDS011;66564;42.482;25.548;2024-01-11T08:40:49;10.20;;;4.82;;
77466;SDS011;66564;42.482;25.548;2024-01-11T08:43:15;8.57;;;4.88;;
77466;SDS011;66564;42.482;25.548;2024-01-11T08:45:41;9.85;;;4.72;;
77466;SDS011;66564;42.482;25.548;2024-01-11T08:48:08;8.68;;;4.28;;
77466;SDS011;66564;42.482;25.548;2024-01-11T08:50:36;6.80;;;4.47;;
77466;SDS011;66564;42.482;25.548;2024-01-11T08:53:02;9.82;;;5.32;;
77466;SDS011;66564;42.482;25.548;2024-01-11T08:55:28;14.15;;;5.47;;
77466;SDS011;66564;42.482;25.548;2024-01-11T08:57:54;10.82;;;6.32;;
77466;SDS011;66564;42.482;25.548;2024-01-11T09:00:19;19.30;;;9.88;;
77466;SDS011;66564;42.482;25.548;2024-01-11T09:02:45;9.07;;;4.82;;
77466;SDS011;66564;42.482;25.548;2024-01-11T09:05:11;11.32;;;6.30;;
77466;SDS011;66564;42.482;25.548;2024-01-11T09:07:39;14.90;;;5.20;;
77466;SDS011;66564;42.482;25.548;2024-01-11T09:10:07;7.10;;;3.78;;
77466;SDS011;66564;42.482;25.548;2024-01-11T09:12:34;9.85;;;4.75;;
77466;SDS011;66564;42.482;25.548;2024-01-11T09:15:00;12.38;;;4.13;;
77466;SDS011;66564;42.482;25.548;2024-01-11T09:17:25;8.27;;;3.88;;
77466;SDS011;66564;42.482;25.548;2024-01-11T09:19:51;14.45;;;4.45;;
77466;SDS011;66564;42.482;25.548;2024-01-11T09:22:17;6.68;;;3.95;;
77466;SDS011;66564;42.482;25.548;2024-01-11T09:24:42;6.38;;;4.03;;
77466;SDS011;66564;42.482;25.548;2024-01-11T09:27:08;10.07;;;5.15;;
77466;SDS011;66564;42.482;25.548;2024-01-11T09:29:33;7.68;;;3.78;;
77466;SDS011;66564;42.482;25.548;2024-01-11T09:31:59;4.93;;;3.10;;
77466;SDS011;66564;42.482;25.548;2024-01-11T09:34:24;4.47;;;2.78;;
77466;SDS011;66564;42.482;25.548;2024-01-11T09:36:50;4.05;;;2.55;;
77466;SDS011;66564;42.482;25.548;2024-01-11T09:39:18;3.35;;;2.53;;
77466;SDS011;66564;42.482;25.548;2024-01-11T09:41:50;8.88;;;2.80;;
77466;SDS011;66564;42.482;25.548;2024-01-11T09:44:22;4.47;;;2.42;;
77466;SDS011;66564;42.482;25.548;2024-01-11T09:46:49;3.78;;;2.70;;
77466;SDS011;66564;42.482;25.548;2024-01-11T09:49:14;5.47;;;2.97;;
77466;SDS011;66564;42.482;25.548;2024-01-11T09:51:42;13.75;;;2.90;;
77466;SDS011;66564;42.482;25.548;2024-01-11T09:54:09;5.20;;;2.33;;
77466;SDS011;66564;42.482;25.548;2024-01-11T09:56:35;4.78;;;2.88;;
77466;SDS011;66564;42.482;25.548;2024-01-11T09:59:02;4.05;;;2.33;;
77466;SDS011;66564;42.482;25.548;2024-01-11T10:01:31;3.95;;;2.30;;
77466;SDS011;66564;42.482;25.548;2024-01-11T10:03:56;5.45;;;2.85;;
77466;SDS011;66564;42.482;25.548;2024-01-11T10:06:22;5.95;;;3.40;;
77466;SDS011;66564;42.482;25.548;2024-01-11T10:08:52;5.85;;;3.92;;
77466;SDS011;66564;42.482;25.548;2024-01-11T10:11:17;7.65;;;3.67;;
77466;SDS011;66564;42.482;25.548;2024-01-11T10:13:43;13.18;;;2.92;;
77466;SDS011;66564;42.482;25.548;2024-01-11T10:16:14;6.38;;;2.60;;
77466;SDS011;66564;42.482;25.548;2024-01-11T10:18:42;5.07;;;2.60;;
77466;SDS011;66564;42.482;25.548;2024-01-11T10:21:08;3.90;;;2.30;;
77466;SDS011;66564;42.482;25.548;2024-01-11T10:23:35;3.88;;;2.25;;
77466;SDS011;66564;42.482;25.548;2024-01-11T10:26:01;4.55;;;2.78;;
77466;SDS011;66564;42.482;25.548;2024-01-11T10:28:27;3.30;;;2.17;;
77466;SDS011;66564;42.482;25.548;2024-01-11T10:30:53;5.30;;;2.33;;
77466;SDS011;66564;42.482;25.548;2024-01-11T10:33:20;3.28;;;2.20;;
77466;SDS011;66564;42.482;25.548;2024-01-11T10:35:50;3.78;;;2.20;;
77466;SDS011;66564;42.482;25.548;2024-01-11T10:38:15;3.70;;;2.20;;
77466;SDS011;66564;42.482;25.548;2024-01-11T10:40:42;3.85;;;2.03;;
77466;SDS011;66564;42.482;25.548;2024-01-11T10:43:11;2.60;;;1.85;;
77466;SDS011;66564;42.482;25.548;2024-01-11T10:45:40;6.07;;;2.17;;
77466;SDS011;66564;42.482;25.548;2024-01-11T10:48:13;3.97;;;2.08;;
77466;SDS011;66564;42.482;25.548;2024-01-11T10:50:44;2.72;;;1.95;;
77466;SDS011;66564;42.482;25.548;2024-01-11T10:56:05;3.05;;;1.83;;
77466;SDS011;66564;42.482;25.548;2024-01-11T10:58:32;3.22;;;2.00;;
77466;SDS011;66564;42.482;25.548;2024-01-11T11:01:02;4.00;;;2.10;;
77466;SDS011;66564;42.482;25.548;2024-01-11T11:03:30;3.63;;;1.70;;
77466;SDS011;66564;42.482;25.548;2024-01-11T11:05:59;3.15;;;2.22;;
77466;SDS011;66564;42.482;25.548;2024-01-11T11:08:25;4.05;;;2.67;;
77466;SDS011;66564;42.482;25.548;2024-01-11T11:10:59;4.38;;;2.55;;
77466;SDS011;66564;42.482;25.548;2024-01-11T11:13:26;3.58;;;2.40;;
77466;SDS011;66564;42.482;25.548;2024-01-11T11:15:52;3.63;;;2.63;;
77466;SDS011;66564;42.482;25.548;2024-01-11T11:18:18;3.55;;;2.30;;
77466;SDS011;66564;42.482;25.548;2024-01-11T11:20:46;5.20;;;2.78;;
77466;SDS011;66564;42.482;25.548;2024-01-11T11:23:13;5.28;;;2.72;;
77466;SDS011;66564;42.482;25.548;2024-01-11T11:28:08;5.10;;;3.05;;
77466;SDS011;66564;42.482;25.548;2024-01-11T11:30:43;5.50;;;2.85;;
77466;SDS011;66564;42.482;25.548;2024-01-11T11:33:10;5.35;;;2.75;;
77466;SDS011;66564;42.482;25.548;2024-01-11T11:35:40;4.43;;;2.78;;
77466;SDS011;66564;42.482;25.548;2024-01-11T11:38:06;3.78;;;2.42;;
77466;SDS011;66564;42.482;25.548;2024-01-11T11:40:32;4.75;;;2.60;;
77466;SDS011;66564;42.482;25.548;2024-01-11T11:43:04;5.63;;;3.53;;
77466;SDS011;66564;42.482;25.548;2024-01-11T11:45:30;5.68;;;4.07;;
77466;SDS011;66564;42.482;25.548;2024-01-11T11:47:56;8.90;;;4.43;;
77466;SDS011;66564;42.482;25.548;2024-01-11T11:50:22;7.97;;;3.90;;
77466;SDS011;66564;42.482;25.548;2024-01-11T11:52:55;7.00;;;4.13;;
77466;SDS011;66564;42.482;25.548;2024-01-11T11:55:24;5.80;;;3.58;;
77466;SDS011;66564;42.482;25.548;2024-01-11T11:57:50;5.93;;;3.15;;
77466;SDS011;66564;42.482;25.548;2024-01-11T12:00:18;7.82;;;4.70;;
77466;SDS011;66564;42.482;25.548;2024-01-11T12:02:44;14.18;;;5.25;;
77466;SDS011;66564;42.482;25.548;2024-01-11T12:05:12;10.25;;;5.90;;
77466;SDS011;66564;42.482;25.548;2024-01-11T12:07:40;8.20;;;5.10;;
77466;SDS011;66564;42.482;25.548;2024-01-11T12:10:08;9.82;;;5.47;;
77466;SDS011;66564;42.482;25.548;2024-01-11T12:12:35;9.88;;;5.30;;
77466;SDS011;66564;42.482;25.548;2024-01-11T12:15:02;8.77;;;4.63;;
77466;SDS011;66564;42.482;25.548;2024-01-11T12:17:31;8.15;;;4.78;;
77466;SDS011;66564;42.482;25.548;2024-01-11T12:19:57;8.85;;;5.88;;
77466;SDS011;66564;42.482;25.548;2024-01-11T12:22:23;11.88;;;5.85;;
77466;SDS011;66564;42.482;25.548;2024-01-11T12:24:49;9.25;;;5.95;;
77466;SDS011;66564;42.482;25.548;2024-01-11T12:27:14;11.05;;;5.78;;
77466;SDS011;66564;42.482;25.548;2024-01-11T13:18:32;10.25;;;5.78;;
77466;SDS011;66564;42.482;25.548;2024-01-11T13:20:59;11.18;;;5.45;;
77466;SDS011;66564;42.482;25.548;2024-01-11T13:23:24;14.05;;;7.30;;
77466;SDS011;66564;42.482;25.548;2024-01-11T13:25:50;13.80;;;6.75;;
77466;SDS011;66564;42.482;25.548;2024-01-11T13:28:16;13.25;;;6.03;;
77466;SDS011;66564;42.482;25.548;2024-01-11T13:30:43;19.70;;;6.55;;
77466;SDS011;66564;42.482;25.548;2024-01-11T13:33:10;13.80;;;8.25;;
77466;SDS011;66564;42.482;25.548;2024-01-11T13:35:37;11.70;;;5.97;;
77466;SDS011;66564;42.482;25.548;2024-01-11T13:38:04;13.88;;;7.57;;
77466;SDS011;66564;42.482;25.548;2024-01-11T13:40:30;13.77;;;7.50;;
77466;SDS011;66564;42.482;25.548;2024-01-11T13:42:56;12.07;;;6.32;;
77466;SDS011;66564;42.482;25.548;2024-01-11T13:45:24;10.77;;;5.95;;
77466;SDS011;66564;42.482;25.548;2024-01-11T13:47:51;18.85;;;6.45;;
77466;SDS011;66564;42.482;25.548;2024-01-11T13:50:19;16.85;;;7.70;;
77466;SDS011;66564;42.482;25.548;2024-01-11T13:52:44;15.85;;;9.13;;
77466;SDS011;66564;42.482;25.548;2024-01-11T13:55:10;10.63;;;6.55;;
77466;SDS011;66564;42.482;25.548;2024-01-11T13:57:36;14.95;;;7.10;;
77466;SDS011;66564;42.482;25.548;2024-01-11T14:00:05;25.65;;;9.98;;
77466;SDS011;66564;42.482;25.548;2024-01-11T14:02:31;11.80;;;6.35;;
77466;SDS011;66564;42.482;25.548;2024-01-11T14:04:58;13.05;;;6.28;;
77466;SDS011;66564;42.482;25.548;2024-01-11T14:07:24;12.60;;;6.53;;
77466;SDS011;66564;42.482;25.548;2024-01-11T14:09:50;14.90;;;8.15;;
77466;SDS011;66564;42.482;25.548;2024-01-11T14:12:16;14.80;;;9.02;;
77466;SDS011;66564;42.482;25.548;2024-01-11T14:14:42;15.60;;;8.75;;
77466;SDS011;66564;42.482;25.548;2024-01-11T14:17:10;19.80;;;9.00;;
77466;SDS011;66564;42.482;25.548;2024-01-11T14:19:36;10.45;;;6.50;;
77466;SDS011;66564;42.482;25.548;2024-01-11T14:22:01;14.32;;;7.90;;
77466;SDS011;66564;42.482;25.548;2024-01-11T14:24:27;12.80;;;7.30;;
77466;SDS011;66564;42.482;25.548;2024-01-11T14:26:53;15.27;;;6.32;;
77466;SDS011;66564;42.482;25.548;2024-01-11T14:29:19;23.77;;;6.50;;
77466;SDS011;66564;42.482;25.548;2024-01-11T14:31:44;9.60;;;5.85;;
77466;SDS011;66564;42.482;25.548;2024-01-11T14:34:10;12.15;;;6.20;;
77466;SDS011;66564;42.482;25.548;2024-01-11T14:36:35;9.63;;;5.95;;
77466;SDS011;66564;42.482;25.548;2024-01-11T14:39:02;10.95;;;5.78;;
77466;SDS011;66564;42.482;25.548;2024-01-11T14:41:29;10.52;;;5.40;;
77466;SDS011;66564;42.482;25.548;2024-01-11T14:43:59;13.98;;;5.60;;
77466;SDS011;66564;42.482;25.548;2024-01-11T14:57:51;9.45;;;4.85;;
77466;SDS011;66564;42.482;25.548;2024-01-11T15:00:17;7.32;;;4.82;;
77466;SDS011;66564;42.482;25.548;2024-01-11T15:02:43;6.97;;;3.90;;
77466;SDS011;66564;42.482;25.548;2024-01-11T15:05:10;6.40;;;4.13;;
77466;SDS011;66564;42.482;25.548;2024-01-11T15:07:36;8.75;;;4.43;;
77466;SDS011;66564;42.482;25.548;2024-01-11T15:10:01;8.27;;;4.25;;
77466;SDS011;66564;42.482;25.548;2024-01-11T15:12:27;8.73;;;4.97;;
77466;SDS011;66564;42.482;25.548;2024-01-11T15:14:53;7.75;;;4.38;;
77466;SDS011;66564;42.482;25.548;2024-01-11T15:17:18;8.38;;;4.55;;
77466;SDS011;66564;42.482;25.548;2024-01-11T15:19:44;8.30;;;4.15;;
77466;SDS011;66564;42.482;25.548;2024-01-11T15:22:10;12.70;;;4.57;;
77466;SDS011;66564;42.482;25.548;2024-01-11T15:24:37;6.53;;;4.10;;
77466;SDS011;66564;42.482;25.548;2024-01-11T15:27:04;7.10;;;4.10;;
77466;SDS011;66564;42.482;25.548;2024-01-11T15:29:29;8.25;;;4.68;;